sensor_id;sensor_type;location;lat;lon;timestamp;P1;durP1;ratioP1;P2;durP2;ratioP2
37087;SDS011;23002;52.676;6.432;2023-03-13T00:01:30;16.60;;;4.35;;
37087;SDS011;23002;52.676;6.432;2023-03-13T00:03:57;12.98;;;3.38;;
37087;SDS011;23002;52.676;6.432;2023-03-13T00:06:25;17.77;;;3.47;;
37087;SDS011;23002;52.676;6.432;2023-03-13T00:08:53;18.45;;;2.85;;
37087;SDS011;23002;52.676;6.432;2023-03-13T00:11:20;18.30;;;3.08;;
37087;SDS011;23002;52.676;6.432;2023-03-13T00:13:48;12.65;;;2.40;;
37087;SDS011;23002;52.676;6.432;2023-03-13T00:16:19;19.55;;;3.58;;
37087;SDS011;23002;52.676;6.432;2023-03-13T00:18:47;15.48;;;3.55;;
37087;SDS011;23002;52.676;6.432;2023-03-13T00:21:15;11.82;;;2.95;;
37087;SDS011;23002;52.676;6.432;2023-03-13T00:23:42;20.33;;;3.15;;
37087;SDS011;23002;52.676;6.432;2023-03-13T00:26:10;13.77;;;3.08;;
37087;SDS011;23002;52.676;6.432;2023-03-13T00:28:38;15.07;;;2.40;;
37087;SDS011;23002;52.676;6.432;2023-03-13T00:31:09;17.92;;;3.22;;
37087;SDS011;23002;52.676;6.432;2023-03-13T00:33:37;12.93;;;2.70;;
37087;SDS011;23002;52.676;6.432;2023-03-13T00:36:12;10.02;;;2.20;;
37087;SDS011;23002;52.676;6.432;2023-03-13T00:38:40;7.85;;;2.28;;
37087;SDS011;23002;52.676;6.432;2023-03-13T00:41:08;12.07;;;2.50;;
37087;SDS011;23002;52.676;6.432;2023-03-13T00:43:39;14.20;;;2.67;;
37087;SDS011;23002;52.676;6.432;2023-03-13T00:46:07;16.85;;;2.67;;
37087;SDS011;23002;52.676;6.432;2023-03-13T00:48:34;14.18;;;2.85;;
37087;SDS011;23002;52.676;6.432;2023-03-13T00:51:02;13.60;;;3.08;;
37087;SDS011;23002;52.676;6.432;2023-03-13T00:53:29;9.13;;;2.13;;
37087;SDS011;23002;52.676;6.432;2023-03-13T00:56:03;11.07;;;2.58;;
37087;SDS011;23002;52.676;6.432;2023-03-13T00:58:32;13.68;;;3.15;;
37087;SDS011;23002;52.676;6.432;2023-03-13T01:03:33;11.60;;;2.65;;
37087;SDS011;23002;52.676;6.432;2023-03-13T01:06:02;14.68;;;2.70;;
37087;SDS011;23002;52.676;6.432;2023-03-13T01:08:29;10.65;;;3.05;;
37087;SDS011;23002;52.676;6.432;2023-03-13T01:10:57;9.45;;;2.33;;
37087;SDS011;23002;52.676;6.432;2023-03-13T01:13:24;9.80;;;2.38;;
37087;SDS011;23002;52.676;6.432;2023-03-13T01:15:52;16.30;;;3.17;;
37087;SDS011;23002;52.676;6.432;2023-03-13T01:18:19;18.75;;;2.53;;
37087;SDS011;23002;52.676;6.432;2023-03-13T01:20:46;14.48;;;2.45;;
37087;SDS011;23002;52.676;6.432;2023-03-13T01:23:13;12.73;;;3.20;;
37087;SDS011;23002;52.676;6.432;2023-03-13T01:25:40;13.98;;;3.42;;
37087;SDS011;23002;52.676;6.432;2023-03-13T01:28:08;8.90;;;2.55;;
37087;SDS011;23002;52.676;6.432;2023-03-13T01:30:35;13.90;;;2.22;;
37087;SDS011;23002;52.676;6.432;2023-03-13T01:33:02;14.25;;;2.90;;
37087;SDS011;23002;52.676;6.432;2023-03-13T01:35:29;18.30;;;3.47;;
37087;SDS011;23002;52.676;6.432;2023-03-13T01:37:56;9.20;;;3.35;;
37087;SDS011;23002;52.676;6.432;2023-03-13T01:40:23;17.70;;;3.53;;
37087;SDS011;23002;52.676;6.432;2023-03-13T01:42:51;17.80;;;4.05;;
37087;SDS011;23002;52.676;6.432;2023-03-13T01:48:04;12.00;;;2.40;;
37087;SDS011;23002;52.676;6.432;2023-03-13T01:50:31;7.57;;;2.05;;
37087;SDS011;23002;52.676;6.432;2023-03-13T01:52:58;20.92;;;3.30;;
37087;SDS011;23002;52.676;6.432;2023-03-13T01:55:26;11.07;;;2.58;;
37087;SDS011;23002;52.676;6.432;2023-03-13T01:57:53;14.05;;;3.55;;
37087;SDS011;23002;52.676;6.432;2023-03-13T02:00:27;12.00;;;3.55;;
37087;SDS011;23002;52.676;6.432;2023-03-13T02:02:57;10.45;;;2.60;;
37087;SDS011;23002;52.676;6.432;2023-03-13T02:05:27;10.80;;;2.45;;
37087;SDS011;23002;52.676;6.432;2023-03-13T02:08:02;12.52;;;2.75;;
37087;SDS011;23002;52.676;6.432;2023-03-13T02:10:31;9.27;;;2.90;;
37087;SDS011;23002;52.676;6.432;2023-03-13T02:12:59;9.38;;;1.77;;
37087;SDS011;23002;52.676;6.432;2023-03-13T02:15:27;11.10;;;2.40;;
37087;SDS011;23002;52.676;6.432;2023-03-13T02:17:54;6.72;;;1.95;;
37087;SDS011;23002;52.676;6.432;2023-03-13T02:20:22;9.65;;;1.95;;
37087;SDS011;23002;52.676;6.432;2023-03-13T02:23:02;8.55;;;2.22;;
37087;SDS011;23002;52.676;6.432;2023-03-13T02:25:46;8.50;;;2.47;;
37087;SDS011;23002;52.676;6.432;2023-03-13T02:28:26;6.88;;;1.80;;
37087;SDS011;23002;52.676;6.432;2023-03-13T02:30:59;7.68;;;1.95;;
37087;SDS011;23002;52.676;6.432;2023-03-13T02:33:27;10.07;;;2.25;;
37087;SDS011;23002;52.676;6.432;2023-03-13T02:35:55;10.30;;;2.10;;
37087;SDS011;23002;52.676;6.432;2023-03-13T02:38:23;5.75;;;2.33;;
37087;SDS011;23002;52.676;6.432;2023-03-13T02:40:51;7.25;;;2.10;;
37087;SDS011;23002;52.676;6.432;2023-03-13T02:43:20;5.22;;;2.03;;
37087;SDS011;23002;52.676;6.432;2023-03-13T02:46:02;6.45;;;1.90;;
37087;SDS011;23002;52.676;6.432;2023-03-13T02:48:30;5.32;;;2.20;;
37087;SDS011;23002;52.676;6.432;2023-03-13T02:50:57;9.52;;;2.50;;
37087;SDS011;23002;52.676;6.432;2023-03-13T02:53:24;3.58;;;1.98;;
37087;SDS011;23002;52.676;6.432;2023-03-13T02:55:52;5.65;;;2.17;;
37087;SDS011;23002;52.676;6.432;2023-03-13T02:58:19;4.85;;;1.77;;
37087;SDS011;23002;52.676;6.432;2023-03-13T03:00:49;6.35;;;1.88;;
37087;SDS011;23002;52.676;6.432;2023-03-13T03:03:16;7.30;;;2.38;;
37087;SDS011;23002;52.676;6.432;2023-03-13T03:05:43;6.07;;;2.45;;
37087;SDS011;23002;52.676;6.432;2023-03-13T03:08:10;4.85;;;1.73;;
37087;SDS011;23002;52.676;6.432;2023-03-13T03:10:37;3.65;;;1.67;;
37087;SDS011;23002;52.676;6.432;2023-03-13T03:13:04;7.28;;;2.30;;
37087;SDS011;23002;52.676;6.432;2023-03-13T03:15:31;5.07;;;2.08;;
37087;SDS011;23002;52.676;6.432;2023-03-13T03:17:58;6.00;;;2.00;;
37087;SDS011;23002;52.676;6.432;2023-03-13T03:20:25;4.22;;;2.10;;
37087;SDS011;23002;52.676;6.432;2023-03-13T03:22:52;5.38;;;2.13;;
37087;SDS011;23002;52.676;6.432;2023-03-13T03:25:19;6.05;;;2.10;;
37087;SDS011;23002;52.676;6.432;2023-03-13T03:27:46;6.18;;;2.03;;
37087;SDS011;23002;52.676;6.432;2023-03-13T03:30:14;4.43;;;2.25;;
37087;SDS011;23002;52.676;6.432;2023-03-13T03:32:41;6.13;;;1.95;;
37087;SDS011;23002;52.676;6.432;2023-03-13T03:35:09;4.97;;;2.25;;
37087;SDS011;23002;52.676;6.432;2023-03-13T03:37:36;4.22;;;1.73;;
37087;SDS011;23002;52.676;6.432;2023-03-13T03:40:03;4.93;;;1.80;;
37087;SDS011;23002;52.676;6.432;2023-03-13T03:42:34;4.32;;;1.67;;
37087;SDS011;23002;52.676;6.432;2023-03-13T03:45:01;3.95;;;2.20;;
37087;SDS011;23002;52.676;6.432;2023-03-13T03:47:29;5.68;;;2.58;;
37087;SDS011;23002;52.676;6.432;2023-03-13T03:49:56;3.03;;;1.83;;
37087;SDS011;23002;52.676;6.432;2023-03-13T03:52:23;4.57;;;1.88;;
37087;SDS011;23002;52.676;6.432;2023-03-13T03:54:50;4.82;;;1.98;;
37087;SDS011;23002;52.676;6.432;2023-03-13T03:57:17;4.63;;;2.20;;
37087;SDS011;23002;52.676;6.432;2023-03-13T03:59:44;6.60;;;2.00;;
37087;SDS011;23002;52.676;6.432;2023-03-13T04:02:11;4.60;;;2.13;;
37087;SDS011;23002;52.676;6.432;2023-03-13T04:04:38;6.13;;;2.35;;
37087;SDS011;23002;52.676;6.432;2023-03-13T04:07:05;5.75;;;2.35;;
37087;SDS011;23002;52.676;6.432;2023-03-13T04:09:32;5.78;;;2.00;;
37087;SDS011;23002;52.676;6.432;2023-03-13T04:11:59;4.80;;;1.77;;
37087;SDS011;23002;52.676;6.432;2023-03-13T04:14:26;6.38;;;2.17;;
37087;SDS011;23002;52.676;6.432;2023-03-13T04:16:53;4.43;;;2.33;;
37087;SDS011;23002;52.676;6.432;2023-03-13T04:19:21;6.65;;;2.10;;
37087;SDS011;23002;52.676;6.432;2023-03-13T04:21:48;5.10;;;2.28;;
37087;SDS011;23002;52.676;6.432;2023-03-13T04:24:15;4.97;;;2.38;;
37087;SDS011;23002;52.676;6.432;2023-03-13T04:26:42;5.07;;;2.67;;
37087;SDS011;23002;52.676;6.432;2023-03-13T04:29:09;3.70;;;1.90;;
37087;SDS011;23002;52.676;6.432;2023-03-13T04:31:36;5.40;;;2.50;;
37087;SDS011;23002;52.676;6.432;2023-03-13T04:34:03;4.72;;;2.08;;
37087;SDS011;23002;52.676;6.432;2023-03-13T04:36:30;6.53;;;2.65;;
37087;SDS011;23002;52.676;6.432;2023-03-13T04:38:57;6.65;;;3.10;;
37087;SDS011;23002;52.676;6.432;2023-03-13T04:41:24;6.20;;;2.88;;
37087;SDS011;23002;52.676;6.432;2023-03-13T04:43:51;5.70;;;3.13;;
37087;SDS011;23002;52.676;6.432;2023-03-13T04:46:18;8.13;;;3.22;;
37087;SDS011;23002;52.676;6.432;2023-03-13T04:48:45;10.90;;;3.20;;
37087;SDS011;23002;52.676;6.432;2023-03-13T04:51:12;6.05;;;2.90;;
37087;SDS011;23002;52.676;6.432;2023-03-13T04:53:39;7.90;;;2.90;;
37087;SDS011;23002;52.676;6.432;2023-03-13T04:56:07;5.95;;;2.70;;
37087;SDS011;23002;52.676;6.432;2023-03-13T04:58:34;5.43;;;2.80;;
37087;SDS011;23002;52.676;6.432;2023-03-13T05:01:01;8.07;;;2.70;;
37087;SDS011;23002;52.676;6.432;2023-03-13T05:03:28;6.90;;;3.03;;
37087;SDS011;23002;52.676;6.432;2023-03-13T05:05:55;8.80;;;2.75;;
37087;SDS011;23002;52.676;6.432;2023-03-13T05:08:22;8.00;;;3.38;;
37087;SDS011;23002;52.676;6.432;2023-03-13T05:10:50;6.80;;;3.20;;
37087;SDS011;23002;52.676;6.432;2023-03-13T05:13:17;7.90;;;3.53;;
37087;SDS011;23002;52.676;6.432;2023-03-13T05:15:44;6.13;;;3.28;;
37087;SDS011;23002;52.676;6.432;2023-03-13T05:18:11;8.02;;;3.25;;
37087;SDS011;23002;52.676;6.432;2023-03-13T05:20:38;8.20;;;3.60;;
37087;SDS011;23002;52.676;6.432;2023-03-13T05:23:05;7.43;;;3.63;;
37087;SDS011;23002;52.676;6.432;2023-03-13T05:25:32;8.25;;;3.40;;
37087;SDS011;23002;52.676;6.432;2023-03-13T05:27:59;8.73;;;3.55;;
37087;SDS011;23002;52.676;6.432;2023-03-13T05:30:26;6.55;;;3.53;;
37087;SDS011;23002;52.676;6.432;2023-03-13T05:32:53;10.13;;;4.00;;
37087;SDS011;23002;52.676;6.432;2023-03-13T05:35:21;8.05;;;3.42;;
37087;SDS011;23002;52.676;6.432;2023-03-13T05:37:48;8.65;;;4.13;;
37087;SDS011;23002;52.676;6.432;2023-03-13T05:40:15;8.32;;;3.88;;
37087;SDS011;23002;52.676;6.432;2023-03-13T05:42:43;7.63;;;3.42;;
37087;SDS011;23002;52.676;6.432;2023-03-13T05:45:10;9.80;;;3.90;;
37087;SDS011;23002;52.676;6.432;2023-03-13T05:47:37;8.07;;;3.78;;
37087;SDS011;23002;52.676;6.432;2023-03-13T05:50:05;6.68;;;3.53;;
37087;SDS011;23002;52.676;6.432;2023-03-13T05:52:32;8.27;;;3.47;;
37087;SDS011;23002;52.676;6.432;2023-03-13T05:54:59;7.28;;;3.50;;
37087;SDS011;23002;52.676;6.432;2023-03-13T05:57:26;9.68;;;4.13;;
37087;SDS011;23002;52.676;6.432;2023-03-13T05:59:53;8.43;;;3.67;;
37087;SDS011;23002;52.676;6.432;2023-03-13T06:02:21;10.48;;;3.33;;
37087;SDS011;23002;52.676;6.432;2023-03-13T06:04:48;7.78;;;3.75;;
37087;SDS011;23002;52.676;6.432;2023-03-13T06:07:15;13.25;;;4.10;;
37087;SDS011;23002;52.676;6.432;2023-03-13T06:09:42;11.60;;;3.83;;
37087;SDS011;23002;52.676;6.432;2023-03-13T06:12:10;6.97;;;3.65;;
37087;SDS011;23002;52.676;6.432;2023-03-13T06:14:37;11.07;;;4.20;;
37087;SDS011;23002;52.676;6.432;2023-03-13T06:17:04;12.85;;;3.80;;
37087;SDS011;23002;52.676;6.432;2023-03-13T06:19:32;9.80;;;3.53;;
37087;SDS011;23002;52.676;6.432;2023-03-13T06:21:59;10.18;;;3.35;;
37087;SDS011;23002;52.676;6.432;2023-03-13T06:24:26;8.57;;;3.63;;
37087;SDS011;23002;52.676;6.432;2023-03-13T06:26:53;8.80;;;3.70;;
37087;SDS011;23002;52.676;6.432;2023-03-13T06:29:20;10.88;;;3.85;;
37087;SDS011;23002;52.676;6.432;2023-03-13T06:31:49;7.88;;;3.58;;
37087;SDS011;23002;52.676;6.432;2023-03-13T06:34:17;10.63;;;3.03;;
37087;SDS011;23002;52.676;6.432;2023-03-13T06:36:44;6.90;;;3.40;;
37087;SDS011;23002;52.676;6.432;2023-03-13T06:39:11;6.05;;;2.70;;
37087;SDS011;23002;52.676;6.432;2023-03-13T06:41:39;6.68;;;2.92;;
37087;SDS011;23002;52.676;6.432;2023-03-13T06:44:06;12.27;;;3.28;;
37087;SDS011;23002;52.676;6.432;2023-03-13T06:46:33;9.05;;;3.38;;
37087;SDS011;23002;52.676;6.432;2023-03-13T06:49:00;6.55;;;2.88;;
37087;SDS011;23002;52.676;6.432;2023-03-13T06:51:29;6.82;;;2.22;;
37087;SDS011;23002;52.676;6.432;2023-03-13T06:53:56;6.20;;;2.85;;
37087;SDS011;23002;52.676;6.432;2023-03-13T06:56:23;9.80;;;2.33;;
37087;SDS011;23002;52.676;6.432;2023-03-13T06:58:51;8.13;;;2.33;;
37087;SDS011;23002;52.676;6.432;2023-03-13T07:01:18;5.10;;;2.50;;
37087;SDS011;23002;52.676;6.432;2023-03-13T07:03:45;5.85;;;2.25;;
37087;SDS011;23002;52.676;6.432;2023-03-13T07:06:13;5.55;;;1.75;;
37087;SDS011;23002;52.676;6.432;2023-03-13T07:08:40;6.07;;;1.98;;
37087;SDS011;23002;52.676;6.432;2023-03-13T07:11:10;14.35;;;2.20;;
37087;SDS011;23002;52.676;6.432;2023-03-13T07:13:37;4.30;;;1.95;;
37087;SDS011;23002;52.676;6.432;2023-03-13T07:16:06;4.30;;;2.00;;
37087;SDS011;23002;52.676;6.432;2023-03-13T07:18:33;6.20;;;1.70;;
37087;SDS011;23002;52.676;6.432;2023-03-13T07:21:02;4.13;;;1.80;;
37087;SDS011;23002;52.676;6.432;2023-03-13T07:23:33;5.95;;;2.45;;
37087;SDS011;23002;52.676;6.432;2023-03-13T07:26:01;5.43;;;1.60;;
37087;SDS011;23002;52.676;6.432;2023-03-13T07:28:29;4.85;;;2.35;;
37087;SDS011;23002;52.676;6.432;2023-03-13T07:33:55;4.13;;;1.38;;
37087;SDS011;23002;52.676;6.432;2023-03-13T07:36:22;3.78;;;1.77;;
37087;SDS011;23002;52.676;6.432;2023-03-13T07:38:49;8.52;;;2.17;;
37087;SDS011;23002;52.676;6.432;2023-03-13T07:41:17;5.10;;;1.48;;
37087;SDS011;23002;52.676;6.432;2023-03-13T07:43:44;8.18;;;1.77;;
37087;SDS011;23002;52.676;6.432;2023-03-13T07:46:13;9.48;;;1.90;;
37087;SDS011;23002;52.676;6.432;2023-03-13T07:48:41;7.50;;;1.73;;
37087;SDS011;23002;52.676;6.432;2023-03-13T07:51:26;4.68;;;2.70;;
37087;SDS011;23002;52.676;6.432;2023-03-13T07:54:07;4.45;;;1.42;;
37087;SDS011;23002;52.676;6.432;2023-03-13T07:56:35;4.15;;;1.92;;
37087;SDS011;23002;52.676;6.432;2023-03-13T07:59:02;2.30;;;1.15;;
37087;SDS011;23002;52.676;6.432;2023-03-13T08:01:30;2.78;;;1.25;;
37087;SDS011;23002;52.676;6.432;2023-03-13T08:03:57;3.72;;;1.35;;
37087;SDS011;23002;52.676;6.432;2023-03-13T08:06:28;6.47;;;1.52;;
37087;SDS011;23002;52.676;6.432;2023-03-13T08:08:59;4.55;;;1.13;;
37087;SDS011;23002;52.676;6.432;2023-03-13T08:11:27;2.05;;;1.00;;
37087;SDS011;23002;52.676;6.432;2023-03-13T08:13:54;3.70;;;1.25;;
37087;SDS011;23002;52.676;6.432;2023-03-13T08:16:23;3.95;;;1.45;;
37087;SDS011;23002;52.676;6.432;2023-03-13T08:18:51;4.85;;;1.30;;
37087;SDS011;23002;52.676;6.432;2023-03-13T08:21:19;2.95;;;1.38;;
37087;SDS011;23002;52.676;6.432;2023-03-13T08:23:47;2.42;;;1.20;;
37087;SDS011;23002;52.676;6.432;2023-03-13T08:26:15;3.25;;;1.75;;
37087;SDS011;23002;52.676;6.432;2023-03-13T08:28:43;2.67;;;1.20;;
37087;SDS011;23002;52.676;6.432;2023-03-13T08:33:38;2.35;;;1.30;;
37087;SDS011;23002;52.676;6.432;2023-03-13T08:36:16;3.17;;;1.20;;
37087;SDS011;23002;52.676;6.432;2023-03-13T08:38:43;4.18;;;1.20;;
37087;SDS011;23002;52.676;6.432;2023-03-13T08:41:22;5.80;;;1.10;;
37087;SDS011;23002;52.676;6.432;2023-03-13T08:43:52;2.03;;;1.00;;
37087;SDS011;23002;52.676;6.432;2023-03-13T08:46:19;4.72;;;1.20;;
37087;SDS011;23002;52.676;6.432;2023-03-13T08:48:49;9.13;;;1.20;;
37087;SDS011;23002;52.676;6.432;2023-03-13T08:51:18;3.85;;;1.45;;
37087;SDS011;23002;52.676;6.432;2023-03-13T08:53:45;4.18;;;1.08;;
37087;SDS011;23002;52.676;6.432;2023-03-13T08:56:13;2.05;;;0.80;;
37087;SDS011;23002;52.676;6.432;2023-03-13T08:58:41;2.50;;;1.13;;
37087;SDS011;23002;52.676;6.432;2023-03-13T09:01:09;3.78;;;0.93;;
37087;SDS011;23002;52.676;6.432;2023-03-13T09:03:37;2.67;;;1.00;;
37087;SDS011;23002;52.676;6.432;2023-03-13T09:06:04;5.32;;;1.05;;
37087;SDS011;23002;52.676;6.432;2023-03-13T09:08:32;4.75;;;1.52;;
37087;SDS011;23002;52.676;6.432;2023-03-13T09:11:00;2.08;;;1.05;;
37087;SDS011;23002;52.676;6.432;2023-03-13T09:13:28;1.65;;;0.85;;
37087;SDS011;23002;52.676;6.432;2023-03-13T09:16:02;2.95;;;0.80;;
37087;SDS011;23002;52.676;6.432;2023-03-13T09:18:30;3.28;;;1.30;;
37087;SDS011;23002;52.676;6.432;2023-03-13T09:20:58;3.10;;;0.95;;
37087;SDS011;23002;52.676;6.432;2023-03-13T09:23:25;4.43;;;1.27;;
37087;SDS011;23002;52.676;6.432;2023-03-13T09:25:52;15.82;;;1.40;;
37087;SDS011;23002;52.676;6.432;2023-03-13T09:28:20;3.72;;;0.80;;
37087;SDS011;23002;52.676;6.432;2023-03-13T09:30:47;3.40;;;1.63;;
37087;SDS011;23002;52.676;6.432;2023-03-13T09:33:15;4.88;;;0.73;;
37087;SDS011;23002;52.676;6.432;2023-03-13T09:35:42;1.23;;;0.70;;
37087;SDS011;23002;52.676;6.432;2023-03-13T09:38:16;3.97;;;1.08;;
37087;SDS011;23002;52.676;6.432;2023-03-13T09:40:44;1.90;;;0.80;;
37087;SDS011;23002;52.676;6.432;2023-03-13T09:45:57;1.95;;;0.90;;
37087;SDS011;23002;52.676;6.432;2023-03-13T09:48:31;3.47;;;1.25;;
37087;SDS011;23002;52.676;6.432;2023-03-13T09:51:12;2.92;;;0.90;;
37087;SDS011;23002;52.676;6.432;2023-03-13T09:53:42;5.55;;;0.88;;
37087;SDS011;23002;52.676;6.432;2023-03-13T09:56:16;3.47;;;0.80;;
37087;SDS011;23002;52.676;6.432;2023-03-13T09:58:49;1.80;;;1.05;;
37087;SDS011;23002;52.676;6.432;2023-03-13T10:01:19;5.30;;;0.85;;
37087;SDS011;23002;52.676;6.432;2023-03-13T10:03:53;2.92;;;1.00;;
37087;SDS011;23002;52.676;6.432;2023-03-13T10:06:21;2.47;;;0.90;;
37087;SDS011;23002;52.676;6.432;2023-03-13T10:08:49;4.43;;;1.33;;
37087;SDS011;23002;52.676;6.432;2023-03-13T10:11:29;4.50;;;1.20;;
37087;SDS011;23002;52.676;6.432;2023-03-13T10:14:04;3.38;;;0.63;;
37087;SDS011;23002;52.676;6.432;2023-03-13T10:16:43;3.70;;;0.80;;
37087;SDS011;23002;52.676;6.432;2023-03-13T10:19:15;1.80;;;0.73;;
37087;SDS011;23002;52.676;6.432;2023-03-13T10:21:44;5.10;;;1.08;;
37087;SDS011;23002;52.676;6.432;2023-03-13T10:24:16;4.75;;;1.00;;
37087;SDS011;23002;52.676;6.432;2023-03-13T10:26:44;4.70;;;1.15;;
37087;SDS011;23002;52.676;6.432;2023-03-13T10:29:25;3.65;;;1.20;;
37087;SDS011;23002;52.676;6.432;2023-03-13T10:34:24;4.90;;;1.30;;
37087;SDS011;23002;52.676;6.432;2023-03-13T10:36:56;1.77;;;0.75;;
37087;SDS011;23002;52.676;6.432;2023-03-13T10:39:25;4.65;;;0.75;;
37087;SDS011;23002;52.676;6.432;2023-03-13T10:41:56;3.17;;;1.20;;
37087;SDS011;23002;52.676;6.432;2023-03-13T10:44:29;3.33;;;0.80;;
37087;SDS011;23002;52.676;6.432;2023-03-13T10:46:58;6.05;;;1.08;;
37087;SDS011;23002;52.676;6.432;2023-03-13T10:49:25;12.75;;;1.70;;
37087;SDS011;23002;52.676;6.432;2023-03-13T10:51:53;8.82;;;2.05;;
37087;SDS011;23002;52.676;6.432;2023-03-13T10:54:25;3.75;;;0.77;;
37087;SDS011;23002;52.676;6.432;2023-03-13T10:59:39;2.40;;;0.80;;
37087;SDS011;23002;52.676;6.432;2023-03-13T11:04:48;4.45;;;0.85;;
37087;SDS011;23002;52.676;6.432;2023-03-13T11:07:29;3.88;;;0.88;;
37087;SDS011;23002;52.676;6.432;2023-03-13T11:10:01;3.70;;;0.80;;
37087;SDS011;23002;52.676;6.432;2023-03-13T11:12:32;1.65;;;0.85;;
37087;SDS011;23002;52.676;6.432;2023-03-13T11:15:00;1.13;;;0.40;;
37087;SDS011;23002;52.676;6.432;2023-03-13T11:17:36;2.15;;;0.73;;
37087;SDS011;23002;52.676;6.432;2023-03-13T11:20:21;2.03;;;0.88;;
37087;SDS011;23002;52.676;6.432;2023-03-13T11:22:59;3.22;;;0.52;;
37087;SDS011;23002;52.676;6.432;2023-03-13T11:25:34;3.72;;;0.60;;
37087;SDS011;23002;52.676;6.432;2023-03-13T11:28:08;2.13;;;0.43;;
37087;SDS011;23002;52.676;6.432;2023-03-13T11:34:08;1.02;;;0.63;;
37087;SDS011;23002;52.676;6.432;2023-03-13T11:36:20;1.30;;;0.60;;
37087;SDS011;23002;52.676;6.432;2023-03-13T11:39:19;3.10;;;0.68;;
37087;SDS011;23002;52.676;6.432;2023-03-13T11:41:44;5.88;;;0.82;;
37087;SDS011;23002;52.676;6.432;2023-03-13T11:44:18;3.50;;;0.65;;
37087;SDS011;23002;52.676;6.432;2023-03-13T11:49:56;2.35;;;0.65;;
37087;SDS011;23002;52.676;6.432;2023-03-13T11:52:36;5.28;;;0.90;;
37087;SDS011;23002;52.676;6.432;2023-03-13T11:55:12;0.85;;;0.50;;
37087;SDS011;23002;52.676;6.432;2023-03-13T12:00:34;2.78;;;0.50;;
37087;SDS011;23002;52.676;6.432;2023-03-13T12:03:19;3.45;;;0.75;;
37087;SDS011;23002;52.676;6.432;2023-03-13T12:05:56;2.72;;;0.70;;
37087;SDS011;23002;52.676;6.432;2023-03-13T12:26:09;1.85;;;0.68;;
37087;SDS011;23002;52.676;6.432;2023-03-13T12:31:42;0.70;;;0.40;;
37087;SDS011;23002;52.676;6.432;2023-03-13T12:34:26;10.52;;;0.63;;
37087;SDS011;23002;52.676;6.432;2023-03-13T12:37:05;3.60;;;0.98;;
37087;SDS011;23002;52.676;6.432;2023-03-13T12:44:56;3.30;;;0.50;;
37087;SDS011;23002;52.676;6.432;2023-03-13T12:53:44;4.30;;;0.73;;
37087;SDS011;23002;52.676;6.432;2023-03-13T12:56:34;2.65;;;0.80;;
37087;SDS011;23002;52.676;6.432;2023-03-13T13:02:26;2.90;;;0.50;;
37087;SDS011;23002;52.676;6.432;2023-03-13T13:04:58;2.78;;;0.60;;
37087;SDS011;23002;52.676;6.432;2023-03-13T13:07:36;2.65;;;0.70;;
37087;SDS011;23002;52.676;6.432;2023-03-13T13:12:42;1.90;;;0.55;;
37087;SDS011;23002;52.676;6.432;2023-03-13T13:23:17;3.13;;;0.90;;
37087;SDS011;23002;52.676;6.432;2023-03-13T13:25:47;4.75;;;0.80;;
37087;SDS011;23002;52.676;6.432;2023-03-13T13:30:47;4.28;;;0.90;;
37087;SDS011;23002;52.676;6.432;2023-03-13T13:33:40;3.78;;;0.77;;
37087;SDS011;23002;52.676;6.432;2023-03-13T13:38:35;3.72;;;0.80;;
37087;SDS011;23002;52.676;6.432;2023-03-13T13:48:35;3.60;;;1.17;;
37087;SDS011;23002;52.676;6.432;2023-03-13T13:53:41;3.13;;;0.90;;
37087;SDS011;23002;52.676;6.432;2023-03-13T13:59:01;5.10;;;0.80;;
37087;SDS011;23002;52.676;6.432;2023-03-13T14:01:29;5.97;;;0.85;;
37087;SDS011;23002;52.676;6.432;2023-03-13T14:04:05;5.03;;;1.38;;
37087;SDS011;23002;52.676;6.432;2023-03-13T14:06:36;4.03;;;0.80;;
37087;SDS011;23002;52.676;6.432;2023-03-13T14:09:13;5.88;;;1.15;;
37087;SDS011;23002;52.676;6.432;2023-03-13T14:11:40;4.20;;;1.10;;
37087;SDS011;23002;52.676;6.432;2023-03-13T14:14:14;4.82;;;1.23;;
37087;SDS011;23002;52.676;6.432;2023-03-13T14:16:46;7.45;;;1.38;;
37087;SDS011;23002;52.676;6.432;2023-03-13T14:21:41;9.98;;;1.45;;
37087;SDS011;23002;52.676;6.432;2023-03-13T14:24:14;3.50;;;0.95;;
37087;SDS011;23002;52.676;6.432;2023-03-13T14:26:42;8.35;;;1.15;;
37087;SDS011;23002;52.676;6.432;2023-03-13T14:29:14;2.83;;;0.77;;
37087;SDS011;23002;52.676;6.432;2023-03-13T14:31:49;6.88;;;1.20;;
37087;SDS011;23002;52.676;6.432;2023-03-13T14:34:16;5.65;;;1.02;;
37087;SDS011;23002;52.676;6.432;2023-03-13T14:36:53;5.10;;;1.13;;
37087;SDS011;23002;52.676;6.432;2023-03-13T14:39:43;10.80;;;1.85;;
37087;SDS011;23002;52.676;6.432;2023-03-13T14:42:11;4.60;;;1.30;;
37087;SDS011;23002;52.676;6.432;2023-03-13T14:44:39;12.82;;;2.33;;
37087;SDS011;23002;52.676;6.432;2023-03-13T14:47:17;10.70;;;2.00;;
37087;SDS011;23002;52.676;6.432;2023-03-13T14:49:45;6.38;;;1.00;;
37087;SDS011;23002;52.676;6.432;2023-03-13T14:52:15;6.07;;;1.40;;
37087;SDS011;23002;52.676;6.432;2023-03-13T14:54:51;5.50;;;1.52;;
37087;SDS011;23002;52.676;6.432;2023-03-13T14:57:20;5.70;;;1.73;;
37087;SDS011;23002;52.676;6.432;2023-03-13T14:59:50;5.22;;;1.00;;
37087;SDS011;23002;52.676;6.432;2023-03-13T15:02:27;7.40;;;1.30;;
37087;SDS011;23002;52.676;6.432;2023-03-13T15:05:00;8.77;;;1.58;;
37087;SDS011;23002;52.676;6.432;2023-03-13T15:12:46;5.20;;;1.00;;
37087;SDS011;23002;52.676;6.432;2023-03-13T15:15:13;8.18;;;1.48;;
37087;SDS011;23002;52.676;6.432;2023-03-13T15:17:40;10.77;;;2.10;;
37087;SDS011;23002;52.676;6.432;2023-03-13T15:20:09;5.05;;;1.33;;
37087;SDS011;23002;52.676;6.432;2023-03-13T15:22:37;6.43;;;1.08;;
37087;SDS011;23002;52.676;6.432;2023-03-13T15:27:43;6.57;;;1.10;;
37087;SDS011;23002;52.676;6.432;2023-03-13T15:30:14;5.00;;;1.02;;
37087;SDS011;23002;52.676;6.432;2023-03-13T15:32:42;5.32;;;1.05;;
37087;SDS011;23002;52.676;6.432;2023-03-13T15:37:48;8.85;;;1.48;;
37087;SDS011;23002;52.676;6.432;2023-03-13T15:40:15;5.90;;;1.23;;
37087;SDS011;23002;52.676;6.432;2023-03-13T15:42:42;8.40;;;1.27;;
37087;SDS011;23002;52.676;6.432;2023-03-13T15:45:09;6.97;;;1.48;;
37087;SDS011;23002;52.676;6.432;2023-03-13T15:47:37;10.50;;;1.30;;
37087;SDS011;23002;52.676;6.432;2023-03-13T15:50:05;7.25;;;1.17;;
37087;SDS011;23002;52.676;6.432;2023-03-13T15:52:32;8.57;;;2.08;;
37087;SDS011;23002;52.676;6.432;2023-03-13T15:55:00;13.77;;;2.00;;
37087;SDS011;23002;52.676;6.432;2023-03-13T15:57:27;10.45;;;1.50;;
37087;SDS011;23002;52.676;6.432;2023-03-13T15:59:54;7.78;;;1.27;;
37087;SDS011;23002;52.676;6.432;2023-03-13T16:02:21;5.25;;;1.63;;
37087;SDS011;23002;52.676;6.432;2023-03-13T16:04:49;8.70;;;1.40;;
37087;SDS011;23002;52.676;6.432;2023-03-13T16:07:18;7.72;;;1.77;;
37087;SDS011;23002;52.676;6.432;2023-03-13T16:09:46;9.75;;;2.15;;
37087;SDS011;23002;52.676;6.432;2023-03-13T16:12:13;5.80;;;1.88;;
37087;SDS011;23002;52.676;6.432;2023-03-13T16:14:40;9.88;;;1.63;;
37087;SDS011;23002;52.676;6.432;2023-03-13T16:17:12;6.50;;;1.25;;
37087;SDS011;23002;52.676;6.432;2023-03-13T16:19:40;7.38;;;1.60;;
37087;SDS011;23002;52.676;6.432;2023-03-13T16:22:07;11.88;;;2.10;;
37087;SDS011;23002;52.676;6.432;2023-03-13T16:24:34;8.50;;;1.50;;
37087;SDS011;23002;52.676;6.432;2023-03-13T16:27:01;9.80;;;1.95;;
37087;SDS011;23002;52.676;6.432;2023-03-13T16:29:28;10.88;;;2.47;;
37087;SDS011;23002;52.676;6.432;2023-03-13T16:31:55;10.57;;;1.83;;
37087;SDS011;23002;52.676;6.432;2023-03-13T16:34:22;12.20;;;2.03;;
37087;SDS011;23002;52.676;6.432;2023-03-13T16:36:49;10.05;;;1.88;;
37087;SDS011;23002;52.676;6.432;2023-03-13T16:39:16;7.50;;;1.70;;
37087;SDS011;23002;52.676;6.432;2023-03-13T16:41:44;7.32;;;1.67;;
37087;SDS011;23002;52.676;6.432;2023-03-13T16:44:11;11.10;;;2.13;;
37087;SDS011;23002;52.676;6.432;2023-03-13T16:46:38;12.82;;;2.05;;